Aviation Digital Data Service (ADDS)

Output produced by METARs form (1522 UTC 23 January 2019)
found at http://www.aviationweather.gov/metar/data/
 
METAR text: HKJK 231500Z 07013KT 9999 FEW028 SCT250 24/13 Q1019 NOSIG
Conditions at: HKJK (NAIROBI/JOMO KEN, KE) observed 1500 UTC 23 January 2019
Temperature: 24.0°C (75°F)
Dewpoint: 13.0°C (55°F) [RH = 50%]
Pressure (altimeter): 30.09 inches Hg (1019.0 mb)
Winds: from the ENE (70 degrees) at 15 MPH (13 knots; 6.7 m/s)
Visibility: 6 or more miles (10+ km)
Ceiling: at least 12,000 feet AGL
Clouds: few clouds at 2800 feet AGL
scattered clouds at 25000 feet AGL
Weather: no significant weather observed at this time

METAR text: HKJK 231400Z 08015KT 050V110 9999 FEW028 26/13 Q1019 NOSIG
Conditions at: HKJK (NAIROBI/JOMO KEN, KE) observed 1400 UTC 23 January 2019
Temperature: 26.0°C (79°F)
Dewpoint: 13.0°C (55°F) [RH = 45%]
Pressure (altimeter): 30.09 inches Hg (1019.0 mb)
Winds: from the E (80 degrees) at 17 MPH (15 knots; 7.7 m/s)
Visibility: 6 or more miles (10+ km)
Ceiling: at least 12,000 feet AGL
Clouds: few clouds at 2800 feet AGL
Weather: no significant weather observed at this time

METAR text: HKJK 231330Z 08013KT 050V110 9999 FEW027 SCT250 26/12 Q1018 NOSIG
Conditions at: HKJK (NAIROBI/JOMO KEN, KE) observed 1330 UTC 23 January 2019
Temperature: 26.0°C (79°F)
Dewpoint: 12.0°C (54°F) [RH = 42%]
Pressure (altimeter): 30.06 inches Hg (1018.0 mb)
Winds: from the E (80 degrees) at 15 MPH (13 knots; 6.7 m/s)
Visibility: 6 or more miles (10+ km)
Ceiling: at least 12,000 feet AGL
Clouds: few clouds at 2700 feet AGL
scattered clouds at 25000 feet AGL
Weather: no significant weather observed at this time

METAR text: HKJK 231300Z 07012KT 040V100 9999 FEW027 SCT240 Q1018 NOSIG
Conditions at: HKJK (NAIROBI/JOMO KEN, KE) observed 1300 UTC 23 January 2019
Temperature: missing
Dewpoint: missing
Pressure (altimeter): 30.06 inches Hg (1018.0 mb)
Winds: from the ENE (70 degrees) at 14 MPH (12 knots; 6.2 m/s)
Visibility: 6 or more miles (10+ km)
Ceiling: at least 12,000 feet AGL
Clouds: few clouds at 2700 feet AGL
scattered clouds at 24000 feet AGL
Weather: no significant weather observed at this time

METAR text: HKJK 231230Z 08011KT 050V120 9999 FEW026 SCT240 26/13 Q1019 NOSIG
Conditions at: HKJK (NAIROBI/JOMO KEN, KE) observed 1230 UTC 23 January 2019
Temperature: 26.0°C (79°F)
Dewpoint: 13.0°C (55°F) [RH = 45%]
Pressure (altimeter): 30.09 inches Hg (1019.0 mb)
Winds: from the E (80 degrees) at 13 MPH (11 knots; 5.7 m/s)
Visibility: 6 or more miles (10+ km)
Ceiling: at least 12,000 feet AGL
Clouds: few clouds at 2600 feet AGL
scattered clouds at 24000 feet AGL
Weather: no significant weather observed at this time

METAR text: HKJK 231200Z 04011KT 360V090 9999 FEW026 SCT240 27/11 Q1019 NOSIG
Conditions at: HKJK (NAIROBI/JOMO KEN, KE) observed 1200 UTC 23 January 2019
Temperature: 27.0°C (81°F)
Dewpoint: 11.0°C (52°F) [RH = 37%]
Pressure (altimeter): 30.09 inches Hg (1019.0 mb)
Winds: from the NE (40 degrees) at 13 MPH (11 knots; 5.7 m/s)
Visibility: 6 or more miles (10+ km)
Ceiling: at least 12,000 feet AGL
Clouds: few clouds at 2600 feet AGL
scattered clouds at 24000 feet AGL
Weather: no significant weather observed at this time

METAR text: HKJK 231130Z 07011KT 360V120 9999 FEW025 SCT230 27/12 Q1019 NOSIG
Conditions at: HKJK (NAIROBI/JOMO KEN, KE) observed 1130 UTC 23 January 2019
Temperature: 27.0°C (81°F)
Dewpoint: 12.0°C (54°F) [RH = 39%]
Pressure (altimeter): 30.09 inches Hg (1019.0 mb)
Winds: from the ENE (70 degrees) at 13 MPH (11 knots; 5.7 m/s)
Visibility: 6 or more miles (10+ km)
Ceiling: at least 12,000 feet AGL
Clouds: few clouds at 2500 feet AGL
scattered clouds at 23000 feet AGL
Weather: no significant weather observed at this time

METAR text: HKJK 231100Z 06008KT 350V110 9999 FEW025 BKN230 27/13 Q1020 NOSIG
Conditions at: HKJK (NAIROBI/JOMO KEN, KE) observed 1100 UTC 23 January 2019
Temperature: 27.0°C (81°F)
Dewpoint: 13.0°C (55°F) [RH = 42%]
Pressure (altimeter): 30.12 inches Hg (1020.0 mb)
Winds: from the ENE (60 degrees) at 9 MPH (8 knots; 4.1 m/s)
Visibility: 6 or more miles (10+ km)
Ceiling: 23000 feet AGL
Clouds: few clouds at 2500 feet AGL
broken clouds at 23000 feet AGL
Weather: no significant weather observed at this time

METAR text: HKJK 231030Z 05010KT 010V110 9999 SCT023 BKN230 25/14 Q1020 NOSIG
Conditions at: HKJK (NAIROBI/JOMO KEN, KE) observed 1030 UTC 23 January 2019
Temperature: 25.0°C (77°F)
Dewpoint: 14.0°C (57°F) [RH = 50%]
Pressure (altimeter): 30.12 inches Hg (1020.0 mb)
Winds: from the NE (50 degrees) at 12 MPH (10 knots; 5.1 m/s)
Visibility: 6 or more miles (10+ km)
Ceiling: 23000 feet AGL
Clouds: scattered clouds at 2300 feet AGL
broken clouds at 23000 feet AGL
Weather: no significant weather observed at this time

METAR text: HKJK 231000Z 07008KT 030V110 9999 FEW023 BKN220 25/14 Q1021 NOSIG
Conditions at: HKJK (NAIROBI/JOMO KEN, KE) observed 1000 UTC 23 January 2019
Temperature: 25.0°C (77°F)
Dewpoint: 14.0°C (57°F) [RH = 50%]
Pressure (altimeter): 30.15 inches Hg (1021.0 mb)
Winds: from the ENE (70 degrees) at 9 MPH (8 knots; 4.1 m/s)
Visibility: 6 or more miles (10+ km)
Ceiling: 22000 feet AGL
Clouds: few clouds at 2300 feet AGL
broken clouds at 22000 feet AGL
Weather: no significant weather observed at this time

METAR text: HKJK 230930Z 07009KT 030V100 9999 SCT022 BKN220 24/14 Q1021 NOSIG
Conditions at: HKJK (NAIROBI/JOMO KEN, KE) observed 0930 UTC 23 January 2019
Temperature: 24.0°C (75°F)
Dewpoint: 14.0°C (57°F) [RH = 54%]
Pressure (altimeter): 30.15 inches Hg (1021.0 mb)
Winds: from the ENE (70 degrees) at 10 MPH (9 knots; 4.6 m/s)
Visibility: 6 or more miles (10+ km)
Ceiling: 22000 feet AGL
Clouds: scattered clouds at 2200 feet AGL
broken clouds at 22000 feet AGL
Weather: no significant weather observed at this time

METAR text: HKJK 230900Z 06009KT 010V310 9999 SCT022 BKN220 24/13 Q1022 NOSIG
Conditions at: HKJK (NAIROBI/JOMO KEN, KE) observed 0900 UTC 23 January 2019
Temperature: 24.0°C (75°F)
Dewpoint: 13.0°C (55°F) [RH = 50%]
Pressure (altimeter): 30.18 inches Hg (1022.0 mb)
Winds: from the ENE (60 degrees) at 10 MPH (9 knots; 4.6 m/s)
Visibility: 6 or more miles (10+ km)
Ceiling: 22000 feet AGL
Clouds: scattered clouds at 2200 feet AGL
broken clouds at 22000 feet AGL
Weather: no significant weather observed at this time

METAR text: HKJK 230830Z 06009KT 020V100 9999 FEW021 BKN200 23/14 Q1022 NOSIG
Conditions at: HKJK (NAIROBI/JOMO KEN, KE) observed 0830 UTC 23 January 2019
Temperature: 23.0°C (73°F)
Dewpoint: 14.0°C (57°F) [RH = 57%]
Pressure (altimeter): 30.18 inches Hg (1022.0 mb)
Winds: from the ENE (60 degrees) at 10 MPH (9 knots; 4.6 m/s)
Visibility: 6 or more miles (10+ km)
Ceiling: 20000 feet AGL
Clouds: few clouds at 2100 feet AGL
broken clouds at 20000 feet AGL
Weather: no significant weather observed at this time

METAR text: HKJK 230800Z 05009KT 010V090 9999 FEW020 BKN200 23/14 Q1022 NOSIG
Conditions at: HKJK (NAIROBI/JOMO KEN, KE) observed 0800 UTC 23 January 2019
Temperature: 23.0°C (73°F)
Dewpoint: 14.0°C (57°F) [RH = 57%]
Pressure (altimeter): 30.18 inches Hg (1022.0 mb)
Winds: from the NE (50 degrees) at 10 MPH (9 knots; 4.6 m/s)
Visibility: 6 or more miles (10+ km)
Ceiling: 20000 feet AGL
Clouds: few clouds at 2000 feet AGL
broken clouds at 20000 feet AGL
Weather: no significant weather observed at this time

METAR text: HKJK 230730Z 04008KT 010V080 9999 FEW020 BKN180 22/14 Q1023 NOSIG
Conditions at: HKJK (NAIROBI/JOMO KEN, KE) observed 0730 UTC 23 January 2019
Temperature: 22.0°C (72°F)
Dewpoint: 14.0°C (57°F) [RH = 60%]
Pressure (altimeter): 30.21 inches Hg (1023.0 mb)
Winds: from the NE (40 degrees) at 9 MPH (8 knots; 4.1 m/s)
Visibility: 6 or more miles (10+ km)
Ceiling: 18000 feet AGL
Clouds: few clouds at 2000 feet AGL
broken clouds at 18000 feet AGL
Weather: no significant weather observed at this time

METAR text: HKJK 230700Z 02006KT 330V070 9999 FEW019 SCT180 21/14 Q1023 NOSIG
Conditions at: HKJK (NAIROBI/JOMO KEN, KE) observed 0700 UTC 23 January 2019
Temperature: 21.0°C (70°F)
Dewpoint: 14.0°C (57°F) [RH = 64%]
Pressure (altimeter): 30.21 inches Hg (1023.0 mb)
Winds: from the NNE (20 degrees) at 7 MPH (6 knots; 3.1 m/s)
Visibility: 6 or more miles (10+ km)
Ceiling: at least 12,000 feet AGL
Clouds: few clouds at 1900 feet AGL
scattered clouds at 18000 feet AGL
Weather: no significant weather observed at this time

METAR text: HKJK 230630Z 02006KT 330V050 9999 FEW019 SCT170 21/14 Q1023 NOSIG
Conditions at: HKJK (NAIROBI/JOMO KEN, KE) observed 0630 UTC 23 January 2019
Temperature: 21.0°C (70°F)
Dewpoint: 14.0°C (57°F) [RH = 64%]
Pressure (altimeter): 30.21 inches Hg (1023.0 mb)
Winds: from the NNE (20 degrees) at 7 MPH (6 knots; 3.1 m/s)
Visibility: 6 or more miles (10+ km)
Ceiling: at least 12,000 feet AGL
Clouds: few clouds at 1900 feet AGL
scattered clouds at 17000 feet AGL
Weather: no significant weather observed at this time

METAR text: HKJK 230600Z 03006KT 9999 FEW018 20/14 Q1023 NOSIG
Conditions at: HKJK (NAIROBI/JOMO KEN, KE) observed 0600 UTC 23 January 2019
Temperature: 20.0°C (68°F)
Dewpoint: 14.0°C (57°F) [RH = 68%]
Pressure (altimeter): 30.21 inches Hg (1023.0 mb)
Winds: from the NNE (30 degrees) at 7 MPH (6 knots; 3.1 m/s)
Visibility: 6 or more miles (10+ km)
Ceiling: at least 12,000 feet AGL
Clouds: few clouds at 1800 feet AGL
Weather: no significant weather observed at this time

METAR text: HKJK 230530Z 01005KT 9999 FEW018 19/13 Q1023 NOSIG
Conditions at: HKJK (NAIROBI/JOMO KEN, KE) observed 0530 UTC 23 January 2019
Temperature: 19.0°C (66°F)
Dewpoint: 13.0°C (55°F) [RH = 68%]
Pressure (altimeter): 30.21 inches Hg (1023.0 mb)
Winds: from the N (10 degrees) at 6 MPH (5 knots; 2.6 m/s)
Visibility: 6 or more miles (10+ km)
Ceiling: at least 12,000 feet AGL
Clouds: few clouds at 1800 feet AGL
Weather: no significant weather observed at this time

METAR text: HKJK 230500Z 36004KT 9000 FEW017 16/13 Q1023 NOSIG
Conditions at: HKJK (NAIROBI/JOMO KEN, KE) observed 0500 UTC 23 January 2019
Temperature: 16.0°C (61°F)
Dewpoint: 13.0°C (55°F) [RH = 82%]
Pressure (altimeter): 30.21 inches Hg (1023.0 mb)
Winds: from the N (360 degrees) at 5 MPH (4 knots; 2.1 m/s)
Visibility: 6 miles ( 9 km)
Ceiling: at least 12,000 feet AGL
Clouds: few clouds at 1700 feet AGL
Weather: no significant weather observed at this time

METAR text: HKJK 230430Z 35003KT 9999 FEW017 16/13 Q1022 NOSIG
Conditions at: HKJK (NAIROBI/JOMO KEN, KE) observed 0430 UTC 23 January 2019
Temperature: 16.0°C (61°F)
Dewpoint: 13.0°C (55°F) [RH = 82%]
Pressure (altimeter): 30.18 inches Hg (1022.0 mb)
Winds: from the N (350 degrees) at 3 MPH (3 knots; 1.5 m/s)
Visibility: 6 or more miles (10+ km)
Ceiling: at least 12,000 feet AGL
Clouds: few clouds at 1700 feet AGL
Weather: no significant weather observed at this time

METAR text: HKJK 230400Z 36003KT 9999 FEW018 16/13 Q1022 NOSIG
Conditions at: HKJK (NAIROBI/JOMO KEN, KE) observed 0400 UTC 23 January 2019
Temperature: 16.0°C (61°F)
Dewpoint: 13.0°C (55°F) [RH = 82%]
Pressure (altimeter): 30.18 inches Hg (1022.0 mb)
Winds: from the N (360 degrees) at 3 MPH (3 knots; 1.5 m/s)
Visibility: 6 or more miles (10+ km)
Ceiling: at least 12,000 feet AGL
Clouds: few clouds at 1800 feet AGL
Weather: no significant weather observed at this time

METAR text: HKJK 230330Z 05004KT 9999 FEW018 16/13 Q1022 NOSIG
Conditions at: HKJK (NAIROBI/JOMO KEN, KE) observed 0330 UTC 23 January 2019
Temperature: 16.0°C (61°F)
Dewpoint: 13.0°C (55°F) [RH = 82%]
Pressure (altimeter): 30.18 inches Hg (1022.0 mb)
Winds: from the NE (50 degrees) at 5 MPH (4 knots; 2.1 m/s)
Visibility: 6 or more miles (10+ km)
Ceiling: at least 12,000 feet AGL
Clouds: few clouds at 1800 feet AGL
Weather: no significant weather observed at this time

METAR text: HKJK 230300Z 08007KT 9999 FEW018 17/13 Q1022 NOSIG
Conditions at: HKJK (NAIROBI/JOMO KEN, KE) observed 0300 UTC 23 January 2019
Temperature: 17.0°C (63°F)
Dewpoint: 13.0°C (55°F) [RH = 77%]
Pressure (altimeter): 30.18 inches Hg (1022.0 mb)
Winds: from the E (80 degrees) at 8 MPH (7 knots; 3.6 m/s)
Visibility: 6 or more miles (10+ km)
Ceiling: at least 12,000 feet AGL
Clouds: few clouds at 1800 feet AGL
Weather: no significant weather observed at this time

METAR text: HKJK 230230Z 36004KT 9999 FEW018 16/13 Q1021 NOSIG
Conditions at: HKJK (NAIROBI/JOMO KEN, KE) observed 0230 UTC 23 January 2019
Temperature: 16.0°C (61°F)
Dewpoint: 13.0°C (55°F) [RH = 82%]
Pressure (altimeter): 30.15 inches Hg (1021.0 mb)
Winds: from the N (360 degrees) at 5 MPH (4 knots; 2.1 m/s)
Visibility: 6 or more miles (10+ km)
Ceiling: at least 12,000 feet AGL
Clouds: few clouds at 1800 feet AGL
Weather: no significant weather observed at this time

METAR text: HKJK 230200Z 04007KT 9999 FEW019 17/13 Q1021 NOSIG
Conditions at: HKJK (NAIROBI/JOMO KEN, KE) observed 0200 UTC 23 January 2019
Temperature: 17.0°C (63°F)
Dewpoint: 13.0°C (55°F) [RH = 77%]
Pressure (altimeter): 30.15 inches Hg (1021.0 mb)
Winds: from the NE (40 degrees) at 8 MPH (7 knots; 3.6 m/s)
Visibility: 6 or more miles (10+ km)
Ceiling: at least 12,000 feet AGL
Clouds: few clouds at 1900 feet AGL
Weather: no significant weather observed at this time

METAR text: HKJK 230130Z 04005KT 9999 FEW019 17/13 Q1021 NOSIG
Conditions at: HKJK (NAIROBI/JOMO KEN, KE) observed 0130 UTC 23 January 2019
Temperature: 17.0°C (63°F)
Dewpoint: 13.0°C (55°F) [RH = 77%]
Pressure (altimeter): 30.15 inches Hg (1021.0 mb)
Winds: from the NE (40 degrees) at 6 MPH (5 knots; 2.6 m/s)
Visibility: 6 or more miles (10+ km)
Ceiling: at least 12,000 feet AGL
Clouds: few clouds at 1900 feet AGL
Weather: no significant weather observed at this time

METAR text: HKJK 230100Z 03004KT 9999 FEW019 17/13 Q1021 NOSIG
Conditions at: HKJK (NAIROBI/JOMO KEN, KE) observed 0100 UTC 23 January 2019
Temperature: 17.0°C (63°F)
Dewpoint: 13.0°C (55°F) [RH = 77%]
Pressure (altimeter): 30.15 inches Hg (1021.0 mb)
Winds: from the NNE (30 degrees) at 5 MPH (4 knots; 2.1 m/s)
Visibility: 6 or more miles (10+ km)
Ceiling: at least 12,000 feet AGL
Clouds: few clouds at 1900 feet AGL
Weather: no significant weather observed at this time

METAR text: HKJK 230030Z 01005KT 9999 FEW019 18/14 Q1021 NOSIG
Conditions at: HKJK (NAIROBI/JOMO KEN, KE) observed 0030 UTC 23 January 2019
Temperature: 18.0°C (64°F)
Dewpoint: 14.0°C (57°F) [RH = 77%]
Pressure (altimeter): 30.15 inches Hg (1021.0 mb)
Winds: from the N (10 degrees) at 6 MPH (5 knots; 2.6 m/s)
Visibility: 6 or more miles (10+ km)
Ceiling: at least 12,000 feet AGL
Clouds: few clouds at 1900 feet AGL
Weather: no significant weather observed at this time

METAR text: HKJK 230000Z 36004KT 9999 SCT019 18/14 Q1021 NOSIG
Conditions at: HKJK (NAIROBI/JOMO KEN, KE) observed 0000 UTC 23 January 2019
Temperature: 18.0°C (64°F)
Dewpoint: 14.0°C (57°F) [RH = 77%]
Pressure (altimeter): 30.15 inches Hg (1021.0 mb)
Winds: from the N (360 degrees) at 5 MPH (4 knots; 2.1 m/s)
Visibility: 6 or more miles (10+ km)
Ceiling: at least 12,000 feet AGL
Clouds: scattered clouds at 1900 feet AGL
Weather: no significant weather observed at this time

METAR text: HKJK 222330Z 01004KT 9999 SCT020 17/14 Q1021 NOSIG
Conditions at: HKJK (NAIROBI/JOMO KEN, KE) observed 2330 UTC 22 January 2019
Temperature: 17.0°C (63°F)
Dewpoint: 14.0°C (57°F) [RH = 82%]
Pressure (altimeter): 30.15 inches Hg (1021.0 mb)
Winds: from the N (10 degrees) at 5 MPH (4 knots; 2.1 m/s)
Visibility: 6 or more miles (10+ km)
Ceiling: at least 12,000 feet AGL
Clouds: scattered clouds at 2000 feet AGL
Weather: no significant weather observed at this time

METAR text: HKJK 222300Z 01005KT 9999 FEW020 18/14 Q1021 NOSIG
Conditions at: HKJK (NAIROBI/JOMO KEN, KE) observed 2300 UTC 22 January 2019
Temperature: 18.0°C (64°F)
Dewpoint: 14.0°C (57°F) [RH = 77%]
Pressure (altimeter): 30.15 inches Hg (1021.0 mb)
Winds: from the N (10 degrees) at 6 MPH (5 knots; 2.6 m/s)
Visibility: 6 or more miles (10+ km)
Ceiling: at least 12,000 feet AGL
Clouds: few clouds at 2000 feet AGL
Weather: no significant weather observed at this time

METAR text: HKJK 222230Z 03004KT 9999 FEW020 18/13 Q1021 NOSIG
Conditions at: HKJK (NAIROBI/JOMO KEN, KE) observed 2230 UTC 22 January 2019
Temperature: 18.0°C (64°F)
Dewpoint: 13.0°C (55°F) [RH = 73%]
Pressure (altimeter): 30.15 inches Hg (1021.0 mb)
Winds: from the NNE (30 degrees) at 5 MPH (4 knots; 2.1 m/s)
Visibility: 6 or more miles (10+ km)
Ceiling: at least 12,000 feet AGL
Clouds: few clouds at 2000 feet AGL
Weather: no significant weather observed at this time

METAR text: HKJK 222200Z 03006KT 9999 FEW021 19/14 Q1022 NOSIG
Conditions at: HKJK (NAIROBI/JOMO KEN, KE) observed 2200 UTC 22 January 2019
Temperature: 19.0°C (66°F)
Dewpoint: 14.0°C (57°F) [RH = 73%]
Pressure (altimeter): 30.18 inches Hg (1022.0 mb)
Winds: from the NNE (30 degrees) at 7 MPH (6 knots; 3.1 m/s)
Visibility: 6 or more miles (10+ km)
Ceiling: at least 12,000 feet AGL
Clouds: few clouds at 2100 feet AGL
Weather: no significant weather observed at this time

METAR text: HKJK 222130Z 04005KT 9999 BKN021 20/12 Q1022 NOSIG
Conditions at: HKJK (NAIROBI/JOMO KEN, KE) observed 2130 UTC 22 January 2019
Temperature: 20.0°C (68°F)
Dewpoint: 12.0°C (54°F) [RH = 60%]
Pressure (altimeter): 30.18 inches Hg (1022.0 mb)
Winds: from the NE (40 degrees) at 6 MPH (5 knots; 2.6 m/s)
Visibility: 6 or more miles (10+ km)
Ceiling: 2100 feet AGL
Clouds: broken clouds at 2100 feet AGL
Weather: no significant weather observed at this time

METAR text: HKJK 222100Z 04006KT 9999 SCT021 21/14 Q1022 NOSIG
Conditions at: HKJK (NAIROBI/JOMO KEN, KE) observed 2100 UTC 22 January 2019
Temperature: 21.0°C (70°F)
Dewpoint: 14.0°C (57°F) [RH = 64%]
Pressure (altimeter): 30.18 inches Hg (1022.0 mb)
Winds: from the NE (40 degrees) at 7 MPH (6 knots; 3.1 m/s)
Visibility: 6 or more miles (10+ km)
Ceiling: at least 12,000 feet AGL
Clouds: scattered clouds at 2100 feet AGL
Weather: no significant weather observed at this time

METAR text: HKJK 222030Z 04006KT 9999 FEW021 BKN080 20/15 NOSIG
Conditions at: HKJK (NAIROBI/JOMO KEN, KE) observed 2030 UTC 22 January 2019
Temperature: 20.0°C (68°F)
Dewpoint: 15.0°C (59°F) [RH = 73%]
Pressure (altimeter): missing
Winds: from the NE (40 degrees) at 7 MPH (6 knots; 3.1 m/s)
Visibility: 6 or more miles (10+ km)
Ceiling: 8000 feet AGL
Clouds: few clouds at 2100 feet AGL
broken clouds at 8000 feet AGL
Weather: no significant weather observed at this time

METAR text: HKJK 222000Z 07007KT 9999 BKN022 20/15 Q1022 NOSIG
Conditions at: HKJK (NAIROBI/JOMO KEN, KE) observed 2000 UTC 22 January 2019
Temperature: 20.0°C (68°F)
Dewpoint: 15.0°C (59°F) [RH = 73%]
Pressure (altimeter): 30.18 inches Hg (1022.0 mb)
Winds: from the ENE (70 degrees) at 8 MPH (7 knots; 3.6 m/s)
Visibility: 6 or more miles (10+ km)
Ceiling: 2200 feet AGL
Clouds: broken clouds at 2200 feet AGL
Weather: no significant weather observed at this time

METAR text: HKJK 221930Z 07008KT 9999 BKN023 21/14 Q1022 NOSIG
Conditions at: HKJK (NAIROBI/JOMO KEN, KE) observed 1930 UTC 22 January 2019
Temperature: 21.0°C (70°F)
Dewpoint: 14.0°C (57°F) [RH = 64%]
Pressure (altimeter): 30.18 inches Hg (1022.0 mb)
Winds: from the ENE (70 degrees) at 9 MPH (8 knots; 4.1 m/s)
Visibility: 6 or more miles (10+ km)
Ceiling: 2300 feet AGL
Clouds: broken clouds at 2300 feet AGL
Weather: no significant weather observed at this time

METAR text: HKJK 221900Z 05009KT 9999 SCT023 21/14 Q1022 NOSIG
Conditions at: HKJK (NAIROBI/JOMO KEN, KE) observed 1900 UTC 22 January 2019
Temperature: 21.0°C (70°F)
Dewpoint: 14.0°C (57°F) [RH = 64%]
Pressure (altimeter): 30.18 inches Hg (1022.0 mb)
Winds: from the NE (50 degrees) at 10 MPH (9 knots; 4.6 m/s)
Visibility: 6 or more miles (10+ km)
Ceiling: at least 12,000 feet AGL
Clouds: scattered clouds at 2300 feet AGL
Weather: no significant weather observed at this time

METAR text: HKJK 221800Z 07012KT 9999 FEW024 22/14 Q1021 NOSIG
Conditions at: HKJK (NAIROBI/JOMO KEN, KE) observed 1800 UTC 22 January 2019
Temperature: 22.0°C (72°F)
Dewpoint: 14.0°C (57°F) [RH = 60%]
Pressure (altimeter): 30.15 inches Hg (1021.0 mb)
Winds: from the ENE (70 degrees) at 14 MPH (12 knots; 6.2 m/s)
Visibility: 6 or more miles (10+ km)
Ceiling: at least 12,000 feet AGL
Clouds: few clouds at 2400 feet AGL
Weather: no significant weather observed at this time

METAR text: HKJK 221700Z 05014KT 9999 FEW025 22/14 Q1020 NOSIG
Conditions at: HKJK (NAIROBI/JOMO KEN, KE) observed 1700 UTC 22 January 2019
Temperature: 22.0°C (72°F)
Dewpoint: 14.0°C (57°F) [RH = 60%]
Pressure (altimeter): 30.12 inches Hg (1020.0 mb)
Winds: from the NE (50 degrees) at 16 MPH (14 knots; 7.2 m/s)
Visibility: 6 or more miles (10+ km)
Ceiling: at least 12,000 feet AGL
Clouds: few clouds at 2500 feet AGL
Weather: no significant weather observed at this time

METAR text: HKJK 221630Z 04009KT 9999 FEW026 23/14 Q1020 NOSIG
Conditions at: HKJK (NAIROBI/JOMO KEN, KE) observed 1630 UTC 22 January 2019
Temperature: 23.0°C (73°F)
Dewpoint: 14.0°C (57°F) [RH = 57%]
Pressure (altimeter): 30.12 inches Hg (1020.0 mb)
Winds: from the NE (40 degrees) at 10 MPH (9 knots; 4.6 m/s)
Visibility: 6 or more miles (10+ km)
Ceiling: at least 12,000 feet AGL
Clouds: few clouds at 2600 feet AGL
Weather: no significant weather observed at this time

METAR text: HKJK 221600Z 05015KT 9999 FEW026 23/13 Q1020 NOSIG
Conditions at: HKJK (NAIROBI/JOMO KEN, KE) observed 1600 UTC 22 January 2019
Temperature: 23.0°C (73°F)
Dewpoint: 13.0°C (55°F) [RH = 53%]
Pressure (altimeter): 30.12 inches Hg (1020.0 mb)
Winds: from the NE (50 degrees) at 17 MPH (15 knots; 7.7 m/s)
Visibility: 6 or more miles (10+ km)
Ceiling: at least 12,000 feet AGL
Clouds: few clouds at 2600 feet AGL
Weather: no significant weather observed at this time

METAR text: HKJK 221530Z 05015KT 9999 FEW027 24/13 Q1019 NOSIG
Conditions at: HKJK (NAIROBI/JOMO KEN, KE) observed 1530 UTC 22 January 2019
Temperature: 24.0°C (75°F)
Dewpoint: 13.0°C (55°F) [RH = 50%]
Pressure (altimeter): 30.09 inches Hg (1019.0 mb)
Winds: from the NE (50 degrees) at 17 MPH (15 knots; 7.7 m/s)
Visibility: 6 or more miles (10+ km)
Ceiling: at least 12,000 feet AGL
Clouds: few clouds at 2700 feet AGL
Weather: no significant weather observed at this time

METAR text: HKJK 221500Z 08016KT 9999 FEW027 27/13 Q1019 NOSIG
Conditions at: HKJK (NAIROBI/JOMO KEN, KE) observed 1500 UTC 22 January 2019
Temperature: 27.0°C (81°F)
Dewpoint: 13.0°C (55°F) [RH = 42%]
Pressure (altimeter): 30.09 inches Hg (1019.0 mb)
Winds: from the E (80 degrees) at 18 MPH (16 knots; 8.2 m/s)
Visibility: 6 or more miles (10+ km)
Ceiling: at least 12,000 feet AGL
Clouds: few clouds at 2700 feet AGL
Weather: no significant weather observed at this time

METAR text: HKJK 221430Z 06014KT 9999 FEW026CB SCT027 25/13 Q1018 NOSIG
Conditions at: HKJK (NAIROBI/JOMO KEN, KE) observed 1430 UTC 22 January 2019
Temperature: 25.0°C (77°F)
Dewpoint: 13.0°C (55°F) [RH = 47%]
Pressure (altimeter): 30.06 inches Hg (1018.0 mb)
Winds: from the ENE (60 degrees) at 16 MPH (14 knots; 7.2 m/s)
Visibility: 6 or more miles (10+ km)
Ceiling: at least 12,000 feet AGL
Clouds: few clouds at 2600 feet AGL
scattered clouds at 2700 feet AGL
Weather: no significant weather observed at this time

METAR text: HKJK 221400Z 07015KT 9999 SCT027 26/14 Q1018 NOSIG
Conditions at: HKJK (NAIROBI/JOMO KEN, KE) observed 1400 UTC 22 January 2019
Temperature: 26.0°C (79°F)
Dewpoint: 14.0°C (57°F) [RH = 48%]
Pressure (altimeter): 30.06 inches Hg (1018.0 mb)
Winds: from the ENE (70 degrees) at 17 MPH (15 knots; 7.7 m/s)
Visibility: 6 or more miles (10+ km)
Ceiling: at least 12,000 feet AGL
Clouds: scattered clouds at 2700 feet AGL
Weather: no significant weather observed at this time

METAR text: HKJK 221330Z 09014KT 9999 SCT027 26/14 Q1018 NOSIG
Conditions at: HKJK (NAIROBI/JOMO KEN, KE) observed 1330 UTC 22 January 2019
Temperature: 26.0°C (79°F)
Dewpoint: 14.0°C (57°F) [RH = 48%]
Pressure (altimeter): 30.06 inches Hg (1018.0 mb)
Winds: from the E (90 degrees) at 16 MPH (14 knots; 7.2 m/s)
Visibility: 6 or more miles (10+ km)
Ceiling: at least 12,000 feet AGL
Clouds: scattered clouds at 2700 feet AGL
Weather: no significant weather observed at this time

METAR text: HKJK 221300Z 07004KT 9999 SCT027 27/14 Q1018 NOSIG
Conditions at: HKJK (NAIROBI/JOMO KEN, KE) observed 1300 UTC 22 January 2019
Temperature: 27.0°C (81°F)
Dewpoint: 14.0°C (57°F) [RH = 45%]
Pressure (altimeter): 30.06 inches Hg (1018.0 mb)
Winds: from the ENE (70 degrees) at 5 MPH (4 knots; 2.1 m/s)
Visibility: 6 or more miles (10+ km)
Ceiling: at least 12,000 feet AGL
Clouds: scattered clouds at 2700 feet AGL
Weather: no significant weather observed at this time

METAR text: HKJK 221230Z 09014KT 9999 SCT026 27/14 Q1018
Conditions at: HKJK (NAIROBI/JOMO KEN, KE) observed 1230 UTC 22 January 2019
Temperature: 27.0°C (81°F)
Dewpoint: 14.0°C (57°F) [RH = 45%]
Pressure (altimeter): 30.06 inches Hg (1018.0 mb)
Winds: from the E (90 degrees) at 16 MPH (14 knots; 7.2 m/s)
Visibility: 6 or more miles (10+ km)
Ceiling: at least 12,000 feet AGL
Clouds: scattered clouds at 2600 feet AGL
Weather: no significant weather observed at this time

METAR text: HKJK 221200Z 06007KT 9999 SCT026 26/14 Q1019
Conditions at: HKJK (NAIROBI/JOMO KEN, KE) observed 1200 UTC 22 January 2019
Temperature: 26.0°C (79°F)
Dewpoint: 14.0°C (57°F) [RH = 48%]
Pressure (altimeter): 30.09 inches Hg (1019.0 mb)
Winds: from the ENE (60 degrees) at 8 MPH (7 knots; 3.6 m/s)
Visibility: 6 or more miles (10+ km)
Ceiling: at least 12,000 feet AGL
Clouds: scattered clouds at 2600 feet AGL
Weather: no significant weather observed at this time

METAR text: HKJK 221130Z 02011KT 9999 SCT026 26/13 Q1019
Conditions at: HKJK (NAIROBI/JOMO KEN, KE) observed 1130 UTC 22 January 2019
Temperature: 26.0°C (79°F)
Dewpoint: 13.0°C (55°F) [RH = 45%]
Pressure (altimeter): 30.09 inches Hg (1019.0 mb)
Winds: from the NNE (20 degrees) at 13 MPH (11 knots; 5.7 m/s)
Visibility: 6 or more miles (10+ km)
Ceiling: at least 12,000 feet AGL
Clouds: scattered clouds at 2600 feet AGL
Weather: no significant weather observed at this time

METAR text: HKJK 221030Z 07009KT 9999 SCT025 26/14 Q1020
Conditions at: HKJK (NAIROBI/JOMO KEN, KE) observed 1030 UTC 22 January 2019
Temperature: 26.0°C (79°F)
Dewpoint: 14.0°C (57°F) [RH = 48%]
Pressure (altimeter): 30.12 inches Hg (1020.0 mb)
Winds: from the ENE (70 degrees) at 10 MPH (9 knots; 4.6 m/s)
Visibility: 6 or more miles (10+ km)
Ceiling: at least 12,000 feet AGL
Clouds: scattered clouds at 2500 feet AGL
Weather: no significant weather observed at this time

METAR text: HKJK 221000Z 06009KT 9999 SCT025 25/13 Q1020 NOSIG
Conditions at: HKJK (NAIROBI/JOMO KEN, KE) observed 1000 UTC 22 January 2019
Temperature: 25.0°C (77°F)
Dewpoint: 13.0°C (55°F) [RH = 47%]
Pressure (altimeter): 30.12 inches Hg (1020.0 mb)
Winds: from the ENE (60 degrees) at 10 MPH (9 knots; 4.6 m/s)
Visibility: 6 or more miles (10+ km)
Ceiling: at least 12,000 feet AGL
Clouds: scattered clouds at 2500 feet AGL
Weather: no significant weather observed at this time

METAR text: HKJK 220930Z 06010KT 9999 FEW025 25/13 Q1021 NOSIG
Conditions at: HKJK (NAIROBI/JOMO KEN, KE) observed 0930 UTC 22 January 2019
Temperature: 25.0°C (77°F)
Dewpoint: 13.0°C (55°F) [RH = 47%]
Pressure (altimeter): 30.15 inches Hg (1021.0 mb)
Winds: from the ENE (60 degrees) at 12 MPH (10 knots; 5.1 m/s)
Visibility: 6 or more miles (10+ km)
Ceiling: at least 12,000 feet AGL
Clouds: few clouds at 2500 feet AGL
Weather: no significant weather observed at this time

METAR text: HKJK 220900Z 06009KT 9999 FEW024 24/13 Q1021 NOSIG
Conditions at: HKJK (NAIROBI/JOMO KEN, KE) observed 0900 UTC 22 January 2019
Temperature: 24.0°C (75°F)
Dewpoint: 13.0°C (55°F) [RH = 50%]
Pressure (altimeter): 30.15 inches Hg (1021.0 mb)
Winds: from the ENE (60 degrees) at 10 MPH (9 knots; 4.6 m/s)
Visibility: 6 or more miles (10+ km)
Ceiling: at least 12,000 feet AGL
Clouds: few clouds at 2400 feet AGL
Weather: no significant weather observed at this time

METAR text: HKJK 220830Z 05011KT 9999 FEW024 24/15 Q1022 NOSIG
Conditions at: HKJK (NAIROBI/JOMO KEN, KE) observed 0830 UTC 22 January 2019
Temperature: 24.0°C (75°F)
Dewpoint: 15.0°C (59°F) [RH = 57%]
Pressure (altimeter): 30.18 inches Hg (1022.0 mb)
Winds: from the NE (50 degrees) at 13 MPH (11 knots; 5.7 m/s)
Visibility: 6 or more miles (10+ km)
Ceiling: at least 12,000 feet AGL
Clouds: few clouds at 2400 feet AGL
Weather: no significant weather observed at this time

METAR text: HKJK 220800Z 05012KT 9999 FEW024 24/12 Q1022 NOSIG
Conditions at: HKJK (NAIROBI/JOMO KEN, KE) observed 0800 UTC 22 January 2019
Temperature: 24.0°C (75°F)
Dewpoint: 12.0°C (54°F) [RH = 47%]
Pressure (altimeter): 30.18 inches Hg (1022.0 mb)
Winds: from the NE (50 degrees) at 14 MPH (12 knots; 6.2 m/s)
Visibility: 6 or more miles (10+ km)
Ceiling: at least 12,000 feet AGL
Clouds: few clouds at 2400 feet AGL
Weather: no significant weather observed at this time

METAR text: HKJK 220730Z 05010KT 9999 FEW023 23/12 Q1023 NOSIG
Conditions at: HKJK (NAIROBI/JOMO KEN, KE) observed 0730 UTC 22 January 2019
Temperature: 23.0°C (73°F)
Dewpoint: 12.0°C (54°F) [RH = 50%]
Pressure (altimeter): 30.21 inches Hg (1023.0 mb)
Winds: from the NE (50 degrees) at 12 MPH (10 knots; 5.1 m/s)
Visibility: 6 or more miles (10+ km)
Ceiling: at least 12,000 feet AGL
Clouds: few clouds at 2300 feet AGL
Weather: no significant weather observed at this time

METAR text: HKJK 220700Z 04012KT 9999 FEW023 23/12 Q1023 NOSIG
Conditions at: HKJK (NAIROBI/JOMO KEN, KE) observed 0700 UTC 22 January 2019
Temperature: 23.0°C (73°F)
Dewpoint: 12.0°C (54°F) [RH = 50%]
Pressure (altimeter): 30.21 inches Hg (1023.0 mb)
Winds: from the NE (40 degrees) at 14 MPH (12 knots; 6.2 m/s)
Visibility: 6 or more miles (10+ km)
Ceiling: at least 12,000 feet AGL
Clouds: few clouds at 2300 feet AGL
Weather: no significant weather observed at this time

METAR text: HKJK 220630Z 03009KT 010V080 9999 FEW023 22/10 Q1023 NOSIG
Conditions at: HKJK (NAIROBI/JOMO KEN, KE) observed 0630 UTC 22 January 2019
Temperature: 22.0°C (72°F)
Dewpoint: 10.0°C (50°F) [RH = 46%]
Pressure (altimeter): 30.21 inches Hg (1023.0 mb)
Winds: from the NNE (30 degrees) at 10 MPH (9 knots; 4.6 m/s)
Visibility: 6 or more miles (10+ km)
Ceiling: at least 12,000 feet AGL
Clouds: few clouds at 2300 feet AGL
Weather: no significant weather observed at this time

METAR text: HKJK 220600Z 05008KT 9999 FEW022 22/12 Q1023 NOSIG
Conditions at: HKJK (NAIROBI/JOMO KEN, KE) observed 0600 UTC 22 January 2019
Temperature: 22.0°C (72°F)
Dewpoint: 12.0°C (54°F) [RH = 53%]
Pressure (altimeter): 30.21 inches Hg (1023.0 mb)
Winds: from the NE (50 degrees) at 9 MPH (8 knots; 4.1 m/s)
Visibility: 6 or more miles (10+ km)
Ceiling: at least 12,000 feet AGL
Clouds: few clouds at 2200 feet AGL
Weather: no significant weather observed at this time

METAR text: HKJK 220530Z 04006KT 9999 FEW021 21/11 Q1022 NOSIG
Conditions at: HKJK (NAIROBI/JOMO KEN, KE) observed 0530 UTC 22 January 2019
Temperature: 21.0°C (70°F)
Dewpoint: 11.0°C (52°F) [RH = 53%]
Pressure (altimeter): 30.18 inches Hg (1022.0 mb)
Winds: from the NE (40 degrees) at 7 MPH (6 knots; 3.1 m/s)
Visibility: 6 or more miles (10+ km)
Ceiling: at least 12,000 feet AGL
Clouds: few clouds at 2100 feet AGL
Weather: no significant weather observed at this time

METAR text: HKJK 220500Z 01005KT 8000 HZ FEW020 20/11 Q1022 TEMPO TL0600Z HZ FEW022
Conditions at: HKJK (NAIROBI/JOMO KEN, KE) observed 0500 UTC 22 January 2019
Temperature: 20.0°C (68°F)
Dewpoint: 11.0°C (52°F) [RH = 56%]
Pressure (altimeter): 30.18 inches Hg (1022.0 mb)
Winds: from the N (10 degrees) at 6 MPH (5 knots; 2.6 m/s)
Visibility: 5 miles ( 8 km)
Ceiling: at least 12,000 feet AGL
Clouds: few clouds at 2000 feet AGL
Weather: HZ  (haze)

METAR text: HKJK 220430Z 34004KT 8000 HZ FEW018 16/12 Q1022 TEMPO TL0530Z 8000 FEW020
Conditions at: HKJK (NAIROBI/JOMO KEN, KE) observed 0430 UTC 22 January 2019
Temperature: 16.0°C (61°F)
Dewpoint: 12.0°C (54°F) [RH = 77%]
Pressure (altimeter): 30.18 inches Hg (1022.0 mb)
Winds: from the NNW (340 degrees) at 5 MPH (4 knots; 2.1 m/s)
Visibility: 5 miles ( 8 km)
Ceiling: at least 12,000 feet AGL
Clouds: few clouds at 1800 feet AGL
Weather: HZ  (haze)

METAR text: HKJK 220400Z 33003KT 9999 FEW018 16/12 Q1021 NOSIG
Conditions at: HKJK (NAIROBI/JOMO KEN, KE) observed 0400 UTC 22 January 2019
Temperature: 16.0°C (61°F)
Dewpoint: 12.0°C (54°F) [RH = 77%]
Pressure (altimeter): 30.15 inches Hg (1021.0 mb)
Winds: from the NNW (330 degrees) at 3 MPH (3 knots; 1.5 m/s)
Visibility: 6 or more miles (10+ km)
Ceiling: at least 12,000 feet AGL
Clouds: few clouds at 1800 feet AGL
Weather: no significant weather observed at this time

METAR text: HKJK 220330Z 34004KT 9999 FEW018 16/12 Q1021 NOSIG
Conditions at: HKJK (NAIROBI/JOMO KEN, KE) observed 0330 UTC 22 January 2019
Temperature: 16.0°C (61°F)
Dewpoint: 12.0°C (54°F) [RH = 77%]
Pressure (altimeter): 30.15 inches Hg (1021.0 mb)
Winds: from the NNW (340 degrees) at 5 MPH (4 knots; 2.1 m/s)
Visibility: 6 or more miles (10+ km)
Ceiling: at least 12,000 feet AGL
Clouds: few clouds at 1800 feet AGL
Weather: no significant weather observed at this time

Forecast for: HKJK (NAIROBI/JOMO KEN, KE)
Text: TAF HKJK 231100Z 2312/2418 06010KT 9999 SCT022 BKN220
Forecast period: 1200 to 2000 UTC 23 January 2019
Forecast type: FROM: standard forecast or significant change
Winds: from the ENE (60 degrees) at 12 MPH (10 knots; 5.1 m/s)
Visibility: 6 or more miles 10+ km)
Ceiling: 22000 feet AGL
Clouds: scattered clouds at 2200 feet AGL
broken clouds at 22000 feet AGL
Weather: no significant weather forecast for this period
Text: BECMG 2320/2323 35005KT SCT018
Forecast period: 2000 UTC 23 January 2019 to 0800 UTC 24 January 2019
Forecast type: BECOMING: Conditions expected to become as follows by 2300 UTC 23 January 2019
Winds: from the N (350 degrees) at 6 MPH (5 knots; 2.6 m/s)
Visibility: 6 or more miles 10+ km)
Ceiling: at least 12,000 feet AGL
Clouds: scattered clouds at 1800 feet AGL
Weather: no significant weather forecast for this period
Text: BECMG 2408/2411 06010KT FEW025CB SCT026
Forecast period: 0800 to 1500 UTC 24 January 2019
Forecast type: BECOMING: Conditions expected to become as follows by 1100 UTC 24 January 2019
Winds: from the ENE (60 degrees) at 12 MPH (10 knots; 5.1 m/s)
Visibility: 6 or more miles 10+ km)
Ceiling: at least 12,000 feet AGL
Clouds: few clouds at 2500 feet AGL
scattered clouds at 2600 feet AGL
Weather: no significant weather forecast for this period
Text: BECMG 2415/2418 SCT024
Forecast period: 1500 to 1800 UTC 24 January 2019
Forecast type: BECOMING: Conditions expected to become as follows by 1800 UTC 24 January 2019
Winds: from the ENE (60 degrees) at 12 MPH (10 knots; 5.1 m/s)
Visibility: 6 or more miles 10+ km)
Ceiling: at least 12,000 feet AGL
Clouds: scattered clouds at 2400 feet AGL
Weather: no significant weather forecast for this period